sensor_id;sensor_type;location;lat;lon;timestamp;pressure;altitude;pressure_sealevel;temperature;humidity
22206;BME280;11272;50.104;8.754;2023-03-05T00:00:40;100955.88;;;7.27;63.96
22206;BME280;11272;50.104;8.754;2023-03-05T00:03:06;100955.03;;;7.26;63.64
22206;BME280;11272;50.104;8.754;2023-03-05T00:05:31;100952.38;;;7.25;63.32
22206;BME280;11272;50.104;8.754;2023-03-05T00:07:59;100953.25;;;7.25;63.35
22206;BME280;11272;50.104;8.754;2023-03-05T00:10:25;100951.50;;;7.24;63.35
22206;BME280;11272;50.104;8.754;2023-03-05T00:12:50;100954.13;;;7.24;63.06
22206;BME280;11272;50.104;8.754;2023-03-05T00:15:16;100952.38;;;7.23;63.16
22206;BME280;11272;50.104;8.754;2023-03-05T00:17:41;100951.50;;;7.21;62.68
22206;BME280;11272;50.104;8.754;2023-03-05T00:20:07;100942.69;;;7.19;62.71
22206;BME280;11272;50.104;8.754;2023-03-05T00:22:34;100943.56;;;7.18;62.48
22206;BME280;11272;50.104;8.754;2023-03-05T00:25:00;100949.75;;;7.15;62.68
22206;BME280;11272;50.104;8.754;2023-03-05T00:27:26;100949.72;;;7.14;62.21
22206;BME280;11272;50.104;8.754;2023-03-05T00:29:51;100947.06;;;7.12;62.25
22206;BME280;11272;50.104;8.754;2023-03-05T00:32:17;100945.34;;;7.10;62.13
22206;BME280;11272;50.104;8.754;2023-03-05T00:34:43;100943.56;;;7.07;62.04
22206;BME280;11272;50.104;8.754;2023-03-05T00:37:08;100937.38;;;7.05;61.95
22206;BME280;11272;50.104;8.754;2023-03-05T00:39:34;100936.53;;;7.05;62.07
22206;BME280;11272;50.104;8.754;2023-03-05T00:42:00;100938.28;;;7.03;61.63
22206;BME280;11272;50.104;8.754;2023-03-05T00:44:26;100940.91;;;7.03;61.63
22206;BME280;11272;50.104;8.754;2023-03-05T00:46:52;100932.97;;;7.01;61.22
22206;BME280;11272;50.104;8.754;2023-03-05T00:49:17;100940.91;;;7.01;61.49
22206;BME280;11272;50.104;8.754;2023-03-05T00:51:43;100932.97;;;7.00;61.09
22206;BME280;11272;50.104;8.754;2023-03-05T00:54:08;100933.88;;;6.99;60.92
22206;BME280;11272;50.104;8.754;2023-03-05T00:56:34;100932.97;;;6.97;61.12
22206;BME280;11272;50.104;8.754;2023-03-05T00:59:00;100929.47;;;6.96;61.25
22206;BME280;11272;50.104;8.754;2023-03-05T01:01:26;100930.34;;;6.97;61.07
22206;BME280;11272;50.104;8.754;2023-03-05T01:03:52;100926.81;;;6.95;60.84
22206;BME280;11272;50.104;8.754;2023-03-05T01:06:20;100921.53;;;6.95;60.58
22206;BME280;11272;50.104;8.754;2023-03-05T01:08:46;100925.94;;;6.93;60.53
22206;BME280;11272;50.104;8.754;2023-03-05T01:11:12;100918.91;;;6.93;60.51
22206;BME280;11272;50.104;8.754;2023-03-05T01:13:38;100919.78;;;6.94;60.51
22206;BME280;11272;50.104;8.754;2023-03-05T01:16:04;100919.78;;;6.94;60.34
22206;BME280;11272;50.104;8.754;2023-03-05T01:18:29;100913.63;;;6.93;60.40
22206;BME280;11272;50.104;8.754;2023-03-05T01:20:55;100917.16;;;6.94;60.14
22206;BME280;11272;50.104;8.754;2023-03-05T01:23:21;100911.84;;;6.92;59.82
22206;BME280;11272;50.104;8.754;2023-03-05T01:25:57;100906.56;;;6.91;59.59
22206;BME280;11272;50.104;8.754;2023-03-05T01:28:22;100902.16;;;6.90;59.38
22206;BME280;11272;50.104;8.754;2023-03-05T01:30:48;100904.81;;;6.91;59.35
22206;BME280;11272;50.104;8.754;2023-03-05T01:33:14;100898.66;;;6.91;59.47
22206;BME280;11272;50.104;8.754;2023-03-05T01:35:40;100897.75;;;6.90;59.57
22206;BME280;11272;50.104;8.754;2023-03-05T01:38:06;100895.13;;;6.92;59.81
22206;BME280;11272;50.104;8.754;2023-03-05T01:40:31;100899.53;;;6.91;59.53
22206;BME280;11272;50.104;8.754;2023-03-05T01:43:00;100886.31;;;6.90;59.47
22206;BME280;11272;50.104;8.754;2023-03-05T01:45:31;100891.59;;;6.90;59.56
22206;BME280;11272;50.104;8.754;2023-03-05T01:47:57;100888.06;;;6.89;59.54
22206;BME280;11272;50.104;8.754;2023-03-05T01:50:24;100888.06;;;6.89;59.74
22206;BME280;11272;50.104;8.754;2023-03-05T01:53:00;100892.50;;;6.89;59.19
22206;BME280;11272;50.104;8.754;2023-03-05T01:55:28;100888.97;;;6.88;59.51
22206;BME280;11272;50.104;8.754;2023-03-05T01:58:07;100887.22;;;6.87;59.10
22206;BME280;11272;50.104;8.754;2023-03-05T02:00:42;100896.03;;;6.88;59.09
22206;BME280;11272;50.104;8.754;2023-03-05T02:03:09;100876.66;;;6.86;58.78
22206;BME280;11272;50.104;8.754;2023-03-05T02:05:38;100886.34;;;6.87;58.91
22206;BME280;11272;50.104;8.754;2023-03-05T02:08:08;100873.13;;;6.87;59.06
22206;BME280;11272;50.104;8.754;2023-03-05T02:10:40;100876.66;;;6.87;59.08
22206;BME280;11272;50.104;8.754;2023-03-05T02:13:14;100869.63;;;6.88;58.70
22206;BME280;11272;50.104;8.754;2023-03-05T02:15:42;100862.59;;;6.88;58.97
22206;BME280;11272;50.104;8.754;2023-03-05T02:18:09;100864.34;;;6.88;58.67
22206;BME280;11272;50.104;8.754;2023-03-05T02:20:51;100861.69;;;6.86;58.64
22206;BME280;11272;50.104;8.754;2023-03-05T02:23:19;100859.06;;;6.86;58.32
22206;BME280;11272;50.104;8.754;2023-03-05T02:25:46;100858.16;;;6.86;58.27
22206;BME280;11272;50.104;8.754;2023-03-05T02:30:59;100848.50;;;6.83;57.61
22206;BME280;11272;50.104;8.754;2023-03-05T02:33:25;100848.50;;;6.83;57.66
22206;BME280;11272;50.104;8.754;2023-03-05T02:35:50;100848.50;;;6.83;57.69
22206;BME280;11272;50.104;8.754;2023-03-05T02:38:19;100846.75;;;6.82;57.55
22206;BME280;11272;50.104;8.754;2023-03-05T02:40:45;100841.47;;;6.82;57.36
22206;BME280;11272;50.104;8.754;2023-03-05T02:43:12;100842.34;;;6.81;57.47
22206;BME280;11272;50.104;8.754;2023-03-05T02:45:38;100836.19;;;6.81;57.10
22206;BME280;11272;50.104;8.754;2023-03-05T02:48:04;100834.41;;;6.80;57.28
22206;BME280;11272;50.104;8.754;2023-03-05T02:50:30;100832.66;;;6.80;57.22
22206;BME280;11272;50.104;8.754;2023-03-05T02:52:56;100830.91;;;6.81;57.22
22206;BME280;11272;50.104;8.754;2023-03-05T02:55:22;100824.75;;;6.80;57.30
22206;BME280;11272;50.104;8.754;2023-03-05T02:57:47;100835.31;;;6.82;57.34
22206;BME280;11272;50.104;8.754;2023-03-05T03:00:13;100827.38;;;6.82;57.02
22206;BME280;11272;50.104;8.754;2023-03-05T03:02:39;100826.50;;;6.81;57.11
22206;BME280;11272;50.104;8.754;2023-03-05T03:05:05;100821.22;;;6.81;56.83
22206;BME280;11272;50.104;8.754;2023-03-05T03:07:30;100822.97;;;6.81;56.89
22206;BME280;11272;50.104;8.754;2023-03-05T03:09:58;100813.31;;;6.81;56.55
22206;BME280;11272;50.104;8.754;2023-03-05T03:12:23;100822.97;;;6.81;56.36
22206;BME280;11272;50.104;8.754;2023-03-05T03:14:49;100809.78;;;6.79;56.59
22206;BME280;11272;50.104;8.754;2023-03-05T03:17:15;100810.66;;;6.80;56.24
22206;BME280;11272;50.104;8.754;2023-03-05T03:19:42;100813.31;;;6.78;56.57
22206;BME280;11272;50.104;8.754;2023-03-05T03:22:09;100816.84;;;6.77;56.40
22206;BME280;11272;50.104;8.754;2023-03-05T03:24:36;100808.03;;;6.76;56.31
22206;BME280;11272;50.104;8.754;2023-03-05T03:27:02;100810.69;;;6.76;56.12
22206;BME280;11272;50.104;8.754;2023-03-05T03:29:29;100806.28;;;6.75;55.97
22206;BME280;11272;50.104;8.754;2023-03-05T03:31:55;100808.00;;;6.73;55.86
22206;BME280;11272;50.104;8.754;2023-03-05T03:34:21;100811.53;;;6.74;56.02
22206;BME280;11272;50.104;8.754;2023-03-05T03:36:48;100807.16;;;6.74;56.29
22206;BME280;11272;50.104;8.754;2023-03-05T03:39:15;100801.88;;;6.74;56.11
22206;BME280;11272;50.104;8.754;2023-03-05T03:41:43;100812.41;;;6.74;56.28
22206;BME280;11272;50.104;8.754;2023-03-05T03:44:09;100812.41;;;6.74;56.64
22206;BME280;11272;50.104;8.754;2023-03-05T03:46:36;100800.97;;;6.74;56.30
22206;BME280;11272;50.104;8.754;2023-03-05T03:49:03;100801.88;;;6.74;56.45
22206;BME280;11272;50.104;8.754;2023-03-05T03:51:28;100803.63;;;6.74;56.31
22206;BME280;11272;50.104;8.754;2023-03-05T03:53:54;100806.28;;;6.72;56.15
22206;BME280;11272;50.104;8.754;2023-03-05T03:56:20;100797.47;;;6.70;56.66
22206;BME280;11272;50.104;8.754;2023-03-05T03:58:45;100798.34;;;6.69;56.52
22206;BME280;11272;50.104;8.754;2023-03-05T04:01:13;100802.75;;;6.69;56.64
22206;BME280;11272;50.104;8.754;2023-03-05T04:03:39;100805.41;;;6.67;56.77
22206;BME280;11272;50.104;8.754;2023-03-05T04:06:04;100797.47;;;6.64;56.54
22206;BME280;11272;50.104;8.754;2023-03-05T04:08:31;100805.38;;;6.64;56.64
22206;BME280;11272;50.104;8.754;2023-03-05T04:10:56;100798.38;;;6.62;56.45
22206;BME280;11272;50.104;8.754;2023-03-05T04:13:22;100796.59;;;6.59;56.52
22206;BME280;11272;50.104;8.754;2023-03-05T04:15:47;100791.31;;;6.56;56.59
22206;BME280;11272;50.104;8.754;2023-03-05T04:18:13;100797.47;;;6.54;56.55
22206;BME280;11272;50.104;8.754;2023-03-05T04:20:38;100798.34;;;6.51;56.63
22206;BME280;11272;50.104;8.754;2023-03-05T04:23:04;100793.06;;;6.50;56.94
22206;BME280;11272;50.104;8.754;2023-03-05T04:25:29;100797.47;;;6.49;56.80
22206;BME280;11272;50.104;8.754;2023-03-05T04:27:55;100798.34;;;6.48;56.61
22206;BME280;11272;50.104;8.754;2023-03-05T04:30:20;100795.69;;;6.47;56.86
22206;BME280;11272;50.104;8.754;2023-03-05T04:32:46;100797.47;;;6.46;56.52
22206;BME280;11272;50.104;8.754;2023-03-05T04:35:11;100797.44;;;6.43;56.51
22206;BME280;11272;50.104;8.754;2023-03-05T04:37:37;100792.19;;;6.40;56.52
22206;BME280;11272;50.104;8.754;2023-03-05T04:40:02;100791.28;;;6.38;56.14
22206;BME280;11272;50.104;8.754;2023-03-05T04:42:29;100800.94;;;6.36;56.21
22206;BME280;11272;50.104;8.754;2023-03-05T04:44:55;100799.22;;;6.33;56.16
22206;BME280;11272;50.104;8.754;2023-03-05T04:47:20;100793.06;;;6.30;55.98
22206;BME280;11272;50.104;8.754;2023-03-05T04:49:46;100794.81;;;6.28;56.10
22206;BME280;11272;50.104;8.754;2023-03-05T04:52:12;100786.00;;;6.24;55.60
22206;BME280;11272;50.104;8.754;2023-03-05T04:54:38;100790.41;;;6.22;55.76
22206;BME280;11272;50.104;8.754;2023-03-05T04:57:04;100793.03;;;6.21;55.79
22206;BME280;11272;50.104;8.754;2023-03-05T04:59:30;100790.41;;;6.19;55.29
22206;BME280;11272;50.104;8.754;2023-03-05T05:01:56;100785.09;;;6.16;55.22
22206;BME280;11272;50.104;8.754;2023-03-05T05:04:22;100780.69;;;6.15;55.52
22206;BME280;11272;50.104;8.754;2023-03-05T05:06:48;100776.34;;;6.14;55.45
22206;BME280;11272;50.104;8.754;2023-03-05T05:09:13;100778.97;;;6.13;54.96
22206;BME280;11272;50.104;8.754;2023-03-05T05:11:39;100778.94;;;6.11;55.42
22206;BME280;11272;50.104;8.754;2023-03-05T05:14:05;100772.78;;;6.11;55.03
22206;BME280;11272;50.104;8.754;2023-03-05T05:16:30;100778.94;;;6.11;54.82
22206;BME280;11272;50.104;8.754;2023-03-05T05:18:56;100771.91;;;6.10;55.01
22206;BME280;11272;50.104;8.754;2023-03-05T05:21:21;100766.66;;;6.12;54.88
22206;BME280;11272;50.104;8.754;2023-03-05T05:23:47;100766.66;;;6.12;54.91
22206;BME280;11272;50.104;8.754;2023-03-05T05:26:13;100763.13;;;6.10;54.28
22206;BME280;11272;50.104;8.754;2023-03-05T05:28:39;100766.66;;;6.09;54.64
22206;BME280;11272;50.104;8.754;2023-03-05T05:31:10;100764.88;;;6.08;54.36
22206;BME280;11272;50.104;8.754;2023-03-05T05:33:36;100769.28;;;6.07;54.25
22206;BME280;11272;50.104;8.754;2023-03-05T05:36:06;100758.72;;;6.07;53.98
22206;BME280;11272;50.104;8.754;2023-03-05T05:38:33;100761.34;;;6.06;54.26
22206;BME280;11272;50.104;8.754;2023-03-05T05:41:08;100756.97;;;6.06;54.22
22206;BME280;11272;50.104;8.754;2023-03-05T05:43:34;100749.06;;;6.06;53.73
22206;BME280;11272;50.104;8.754;2023-03-05T05:46:01;100751.72;;;6.08;53.64
22206;BME280;11272;50.104;8.754;2023-03-05T05:48:32;100752.56;;;6.07;53.46
22206;BME280;11272;50.104;8.754;2023-03-05T05:50:58;100743.78;;;6.05;53.71
22206;BME280;11272;50.104;8.754;2023-03-05T05:53:24;100740.28;;;6.03;53.42
22206;BME280;11272;50.104;8.754;2023-03-05T05:55:50;100738.50;;;6.00;53.83
22206;BME280;11272;50.104;8.754;2023-03-05T05:58:17;100743.78;;;5.97;53.72
22206;BME280;11272;50.104;8.754;2023-03-05T06:00:42;100740.25;;;5.97;53.28
22206;BME280;11272;50.104;8.754;2023-03-05T06:03:08;100737.59;;;5.95;53.79
22206;BME280;11272;50.104;8.754;2023-03-05T06:05:34;100734.97;;;5.92;53.28
22206;BME280;11272;50.104;8.754;2023-03-05T06:07:59;100738.50;;;5.93;53.64
22206;BME280;11272;50.104;8.754;2023-03-05T06:10:25;100741.13;;;5.91;53.29
22206;BME280;11272;50.104;8.754;2023-03-05T06:12:51;100730.59;;;5.91;53.30
22206;BME280;11272;50.104;8.754;2023-03-05T06:15:16;100734.09;;;5.90;53.76
22206;BME280;11272;50.104;8.754;2023-03-05T06:17:44;100728.81;;;5.88;53.85
22206;BME280;11272;50.104;8.754;2023-03-05T06:20:11;100727.91;;;5.88;53.32
22206;BME280;11272;50.104;8.754;2023-03-05T06:22:37;100726.16;;;5.88;53.85
22206;BME280;11272;50.104;8.754;2023-03-05T06:25:05;100727.06;;;5.87;53.63
22206;BME280;11272;50.104;8.754;2023-03-05T06:27:34;100723.56;;;5.87;53.83
22206;BME280;11272;50.104;8.754;2023-03-05T06:30:00;100724.41;;;5.89;53.79
22206;BME280;11272;50.104;8.754;2023-03-05T06:32:26;100720.03;;;5.89;54.06
22206;BME280;11272;50.104;8.754;2023-03-05T06:34:51;100730.56;;;5.89;53.55
22206;BME280;11272;50.104;8.754;2023-03-05T06:37:17;100727.06;;;5.90;54.12
22206;BME280;11272;50.104;8.754;2023-03-05T06:39:42;100733.19;;;5.89;53.51
22206;BME280;11272;50.104;8.754;2023-03-05T06:42:08;100727.94;;;5.89;53.60
22206;BME280;11272;50.104;8.754;2023-03-05T06:44:38;100728.81;;;5.90;53.98
22206;BME280;11272;50.104;8.754;2023-03-05T06:47:05;100725.31;;;5.93;53.36
22206;BME280;11272;50.104;8.754;2023-03-05T06:49:31;100734.97;;;5.93;53.49
22206;BME280;11272;50.104;8.754;2023-03-05T06:51:57;100738.50;;;5.96;53.30
22206;BME280;11272;50.104;8.754;2023-03-05T06:54:22;100735.84;;;5.96;53.76
22206;BME280;11272;50.104;8.754;2023-03-05T06:56:48;100740.25;;;6.00;53.47
22206;BME280;11272;50.104;8.754;2023-03-05T06:59:15;100735.88;;;6.03;53.28
22206;BME280;11272;50.104;8.754;2023-03-05T07:01:41;100740.25;;;6.06;53.68
22206;BME280;11272;50.104;8.754;2023-03-05T07:04:07;100733.22;;;6.09;53.57
22206;BME280;11272;50.104;8.754;2023-03-05T07:06:36;100732.38;;;6.13;53.06
22206;BME280;11272;50.104;8.754;2023-03-05T07:09:04;100736.75;;;6.16;53.00
22206;BME280;11272;50.104;8.754;2023-03-05T07:11:30;100735.03;;;6.18;52.67
22206;BME280;11272;50.104;8.754;2023-03-05T07:13:56;100738.50;;;6.20;52.84
22206;BME280;11272;50.104;8.754;2023-03-05T07:16:25;100728.84;;;6.20;52.51
22206;BME280;11272;50.104;8.754;2023-03-05T07:18:52;100742.03;;;6.22;52.80
22206;BME280;11272;50.104;8.754;2023-03-05T07:21:23;100729.75;;;6.24;52.79
22206;BME280;11272;50.104;8.754;2023-03-05T07:23:49;100738.53;;;6.26;52.41
22206;BME280;11272;50.104;8.754;2023-03-05T07:26:15;100738.53;;;6.27;52.41
22206;BME280;11272;50.104;8.754;2023-03-05T07:28:41;100736.78;;;6.28;52.95
22206;BME280;11272;50.104;8.754;2023-03-05T07:31:11;100740.31;;;6.30;53.13
22206;BME280;11272;50.104;8.754;2023-03-05T07:33:37;100743.81;;;6.32;52.79
22206;BME280;11272;50.104;8.754;2023-03-05T07:36:03;100745.56;;;6.33;53.22
22206;BME280;11272;50.104;8.754;2023-03-05T07:38:30;100735.91;;;6.32;53.00
22206;BME280;11272;50.104;8.754;2023-03-05T07:41:01;100733.25;;;6.32;53.44
22206;BME280;11272;50.104;8.754;2023-03-05T07:43:26;100731.50;;;6.31;53.48
22206;BME280;11272;50.104;8.754;2023-03-05T07:45:52;100728.00;;;6.32;53.61
22206;BME280;11272;50.104;8.754;2023-03-05T07:48:18;100733.28;;;6.33;53.69
22206;BME280;11272;50.104;8.754;2023-03-05T07:50:47;100734.16;;;6.36;53.69
22206;BME280;11272;50.104;8.754;2023-03-05T07:53:13;100733.28;;;6.38;53.89
22206;BME280;11272;50.104;8.754;2023-03-05T07:55:46;100737.69;;;6.39;54.16
22206;BME280;11272;50.104;8.754;2023-03-05T07:58:12;100735.03;;;6.41;53.92
22206;BME280;11272;50.104;8.754;2023-03-05T08:00:39;100738.56;;;6.40;54.07
22206;BME280;11272;50.104;8.754;2023-03-05T08:03:05;100735.91;;;6.40;54.27
22206;BME280;11272;50.104;8.754;2023-03-05T08:05:30;100734.16;;;6.40;54.85
22206;BME280;11272;50.104;8.754;2023-03-05T08:07:56;100731.50;;;6.43;54.91
22206;BME280;11272;50.104;8.754;2023-03-05T08:10:22;100728.91;;;6.46;54.97
22206;BME280;11272;50.104;8.754;2023-03-05T08:12:47;100735.94;;;6.46;54.85
22206;BME280;11272;50.104;8.754;2023-03-05T08:15:13;100723.63;;;6.46;55.49
22206;BME280;11272;50.104;8.754;2023-03-05T08:17:38;100720.06;;;6.47;55.15
22206;BME280;11272;50.104;8.754;2023-03-05T08:20:05;100721.84;;;6.51;55.14
22206;BME280;11272;50.104;8.754;2023-03-05T08:22:35;100722.72;;;6.53;55.55
22206;BME280;11272;50.104;8.754;2023-03-05T08:25:01;100721.84;;;6.54;55.19
22206;BME280;11272;50.104;8.754;2023-03-05T08:27:27;100728.88;;;6.58;55.47
22206;BME280;11272;50.104;8.754;2023-03-05T08:29:52;100720.09;;;6.62;55.44
22206;BME280;11272;50.104;8.754;2023-03-05T08:32:18;100725.34;;;6.65;55.08
22206;BME280;11272;50.104;8.754;2023-03-05T08:34:43;100721.81;;;6.63;55.22
22206;BME280;11272;50.104;8.754;2023-03-05T08:37:09;100716.56;;;6.62;54.85
22206;BME280;11272;50.104;8.754;2023-03-05T08:39:35;100716.56;;;6.60;55.11
22206;BME280;11272;50.104;8.754;2023-03-05T08:42:01;100718.31;;;6.60;55.04
22206;BME280;11272;50.104;8.754;2023-03-05T08:44:27;100712.16;;;6.59;55.30
22206;BME280;11272;50.104;8.754;2023-03-05T08:46:52;100714.81;;;6.65;55.00
22206;BME280;11272;50.104;8.754;2023-03-05T08:49:18;100713.03;;;6.72;55.50
22206;BME280;11272;50.104;8.754;2023-03-05T08:51:43;100708.63;;;6.75;55.24
22206;BME280;11272;50.104;8.754;2023-03-05T08:54:09;100705.97;;;6.78;55.00
22206;BME280;11272;50.104;8.754;2023-03-05T08:56:35;100706.84;;;6.81;54.84
22206;BME280;11272;50.104;8.754;2023-03-05T08:59:02;100703.34;;;6.77;55.08
22206;BME280;11272;50.104;8.754;2023-03-05T09:01:29;100698.06;;;6.74;55.02
22206;BME280;11272;50.104;8.754;2023-03-05T09:03:57;100705.13;;;6.69;55.31
22206;BME280;11272;50.104;8.754;2023-03-05T09:06:23;100699.84;;;6.69;55.32
22206;BME280;11272;50.104;8.754;2023-03-05T09:08:48;100704.25;;;6.73;55.46
22206;BME280;11272;50.104;8.754;2023-03-05T09:11:14;100691.91;;;6.80;55.19
22206;BME280;11272;50.104;8.754;2023-03-05T09:13:40;100691.88;;;6.84;55.36
22206;BME280;11272;50.104;8.754;2023-03-05T09:16:08;100689.25;;;6.87;55.14
22206;BME280;11272;50.104;8.754;2023-03-05T09:18:35;100687.50;;;6.94;54.92
22206;BME280;11272;50.104;8.754;2023-03-05T09:21:12;100683.97;;;6.99;54.73
22206;BME280;11272;50.104;8.754;2023-03-05T09:23:39;100679.53;;;7.03;54.43
22206;BME280;11272;50.104;8.754;2023-03-05T09:26:10;100681.28;;;7.07;54.26
22206;BME280;11272;50.104;8.754;2023-03-05T09:28:36;100683.00;;;7.14;54.16
22206;BME280;11272;50.104;8.754;2023-03-05T09:31:03;100676.84;;;7.18;53.84
22206;BME280;11272;50.104;8.754;2023-03-05T09:33:33;100671.56;;;7.18;53.71
22206;BME280;11272;50.104;8.754;2023-03-05T09:35:59;100668.03;;;7.16;53.68
22206;BME280;11272;50.104;8.754;2023-03-05T09:38:26;100677.75;;;7.15;53.24
22206;BME280;11272;50.104;8.754;2023-03-05T09:41:04;100672.44;;;7.17;53.27
22206;BME280;11272;50.104;8.754;2023-03-05T09:43:42;100667.16;;;7.18;53.18
22206;BME280;11272;50.104;8.754;2023-03-05T09:49:13;100659.19;;;7.29;53.17
22206;BME280;11272;50.104;8.754;2023-03-05T09:51:44;100656.53;;;7.29;52.42
22206;BME280;11272;50.104;8.754;2023-03-05T09:54:16;100659.22;;;7.25;52.45
22206;BME280;11272;50.104;8.754;2023-03-05T09:56:49;100653.94;;;7.26;52.29
22206;BME280;11272;50.104;8.754;2023-03-05T09:59:19;100653.03;;;7.29;52.34
22206;BME280;11272;50.104;8.754;2023-03-05T10:01:50;100652.13;;;7.34;52.09
22206;BME280;11272;50.104;8.754;2023-03-05T10:04:27;100648.56;;;7.38;51.98
22206;BME280;11272;50.104;8.754;2023-03-05T10:06:59;100646.78;;;7.43;51.94
22206;BME280;11272;50.104;8.754;2023-03-05T10:09:50;100640.59;;;7.44;51.72
22206;BME280;11272;50.104;8.754;2023-03-05T10:12:22;100639.69;;;7.51;51.79
22206;BME280;11272;50.104;8.754;2023-03-05T10:14:53;100638.75;;;7.60;51.80
22206;BME280;11272;50.104;8.754;2023-03-05T10:17:30;100636.03;;;7.71;51.81
22206;BME280;11272;50.104;8.754;2023-03-05T10:27:54;100620.00;;;7.96;50.75
22206;BME280;11272;50.104;8.754;2023-03-05T10:30:40;100619.94;;;8.02;50.58
22206;BME280;11272;50.104;8.754;2023-03-05T10:42:01;100601.25;;;8.25;49.71
22206;BME280;11272;50.104;8.754;2023-03-05T10:44:37;100599.41;;;8.38;49.50
22206;BME280;11272;50.104;8.754;2023-03-05T10:47:20;100595.78;;;8.45;48.89
22206;BME280;11272;50.104;8.754;2023-03-05T10:49:51;100596.75;;;8.38;48.85
22206;BME280;11272;50.104;8.754;2023-03-05T10:52:39;100592.38;;;8.29;48.76
22206;BME280;11272;50.104;8.754;2023-03-05T10:55:19;100589.72;;;8.29;48.94
22206;BME280;11272;50.104;8.754;2023-03-05T10:57:45;100590.63;;;8.31;48.86
22206;BME280;11272;50.104;8.754;2023-03-05T11:00:25;100588.91;;;8.26;48.69
22206;BME280;11272;50.104;8.754;2023-03-05T11:03:09;100584.53;;;8.19;48.76
22206;BME280;11272;50.104;8.754;2023-03-05T11:08:35;100582.97;;;8.01;49.02
22206;BME280;11272;50.104;8.754;2023-03-05T11:16:24;100587.47;;;7.88;49.24
22206;BME280;11272;50.104;8.754;2023-03-05T11:19:11;100581.34;;;7.82;49.13
22206;BME280;11272;50.104;8.754;2023-03-05T11:21:40;100580.50;;;7.80;49.23
22206;BME280;11272;50.104;8.754;2023-03-05T11:24:17;100581.38;;;7.79;49.42
22206;BME280;11272;50.104;8.754;2023-03-05T11:26:49;100579.56;;;7.81;49.68
22206;BME280;11272;50.104;8.754;2023-03-05T11:29:27;100582.25;;;7.78;49.34
22206;BME280;11272;50.104;8.754;2023-03-05T11:31:54;100583.19;;;7.71;49.62
22206;BME280;11272;50.104;8.754;2023-03-05T11:34:25;100574.44;;;7.63;49.79
22206;BME280;11272;50.104;8.754;2023-03-05T11:39:23;100578.09;;;7.43;50.32
22206;BME280;11272;50.104;8.754;2023-03-05T11:41:52;100572.84;;;7.40;50.03
22206;BME280;11272;50.104;8.754;2023-03-05T11:47:37;100564.03;;;7.38;50.31
22206;BME280;11272;50.104;8.754;2023-03-05T11:50:16;100550.00;;;7.27;50.85
22206;BME280;11272;50.104;8.754;2023-03-05T11:52:50;100548.28;;;7.23;50.89
22206;BME280;11272;50.104;8.754;2023-03-05T11:55:36;100542.16;;;7.16;51.28
22206;BME280;11272;50.104;8.754;2023-03-05T12:00:34;100535.16;;;7.15;52.06
22206;BME280;11272;50.104;8.754;2023-03-05T12:03:04;100536.00;;;7.17;51.97
22206;BME280;11272;50.104;8.754;2023-03-05T12:05:33;100523.69;;;7.19;52.08
22206;BME280;11272;50.104;8.754;2023-03-05T12:08:01;100521.88;;;7.26;51.94
22206;BME280;11272;50.104;8.754;2023-03-05T12:10:30;100519.16;;;7.34;52.05
22206;BME280;11272;50.104;8.754;2023-03-05T12:13:14;100512.06;;;7.40;51.44
22206;BME280;11272;50.104;8.754;2023-03-05T12:16:01;100515.56;;;7.47;51.77
22206;BME280;11272;50.104;8.754;2023-03-05T12:18:39;100496.16;;;7.52;51.54
22206;BME280;11272;50.104;8.754;2023-03-05T12:21:41;100497.88;;;7.53;51.69
22206;BME280;11272;50.104;8.754;2023-03-05T12:26:55;100481.03;;;7.65;51.73
22206;BME280;11272;50.104;8.754;2023-03-05T12:32:04;100478.16;;;7.92;51.25
22206;BME280;11272;50.104;8.754;2023-03-05T12:37:13;100461.09;;;8.21;51.14
22206;BME280;11272;50.104;8.754;2023-03-05T12:39:40;100465.31;;;8.40;50.47
22206;BME280;11272;50.104;8.754;2023-03-05T13:03:36;100430.75;;;8.54;48.83
22206;BME280;11272;50.104;8.754;2023-03-05T13:06:03;100436.09;;;8.49;48.99
22206;BME280;11272;50.104;8.754;2023-03-05T13:08:35;100424.72;;;8.42;48.72
22206;BME280;11272;50.104;8.754;2023-03-05T13:11:15;100423.84;;;8.40;48.73
22206;BME280;11272;50.104;8.754;2023-03-05T13:13:44;100419.38;;;8.44;49.14
22206;BME280;11272;50.104;8.754;2023-03-05T13:16:21;100421.19;;;8.40;48.88
22206;BME280;11272;50.104;8.754;2023-03-05T13:18:48;100423.78;;;8.47;49.16
22206;BME280;11272;50.104;8.754;2023-03-05T13:21:19;100421.94;;;8.50;49.23
22206;BME280;11272;50.104;8.754;2023-03-05T13:23:53;100416.56;;;8.58;49.03
22206;BME280;11272;50.104;8.754;2023-03-05T13:26:36;100425.19;;;8.72;48.41
22206;BME280;11272;50.104;8.754;2023-03-05T13:31:50;100412.81;;;8.74;48.53
22206;BME280;11272;50.104;8.754;2023-03-05T13:34:20;100414.56;;;8.73;48.43
22206;BME280;11272;50.104;8.754;2023-03-05T13:37:00;100404.06;;;8.67;48.52
22206;BME280;11272;50.104;8.754;2023-03-05T13:39:40;100401.44;;;8.66;48.56
22206;BME280;11272;50.104;8.754;2023-03-05T13:42:19;100393.50;;;8.66;48.88
22206;BME280;11272;50.104;8.754;2023-03-05T13:44:57;100390.91;;;8.63;48.79
22206;BME280;11272;50.104;8.754;2023-03-05T13:47:26;100388.34;;;8.55;48.79
22206;BME280;11272;50.104;8.754;2023-03-05T13:50:05;100381.59;;;8.34;48.84
22206;BME280;11272;50.104;8.754;2023-03-05T13:52:34;100375.56;;;8.22;48.75
22206;BME280;11272;50.104;8.754;2023-03-05T13:55:02;100373.84;;;8.18;48.95
22206;BME280;11272;50.104;8.754;2023-03-05T14:00:06;100380.06;;;8.12;49.19
22206;BME280;11272;50.104;8.754;2023-03-05T14:02:49;100376.53;;;8.16;49.45
22206;BME280;11272;50.104;8.754;2023-03-05T14:05:15;100368.59;;;8.15;49.19
22206;BME280;11272;50.104;8.754;2023-03-05T14:07:41;100363.38;;;8.07;49.04
22206;BME280;11272;50.104;8.754;2023-03-05T14:12:55;100355.50;;;8.06;48.88
22206;BME280;11272;50.104;8.754;2023-03-05T14:15:27;100347.50;;;8.12;48.98
22206;BME280;11272;50.104;8.754;2023-03-05T14:20:39;100334.19;;;8.16;49.16
22206;BME280;11272;50.104;8.754;2023-03-05T14:23:29;100328.97;;;8.12;48.87
22206;BME280;11272;50.104;8.754;2023-03-05T14:26:25;100329.88;;;8.09;48.62